Terminal Aerodrome Forecast
Issued by NWS

Home | Current Version | Previous Version | Text Only | Print | Product List | Glossary On
Versions: 1 2 3 4 5 6 7 8 9 10 11 12 13 14 15 16 17 18 19 20
325
FTUS44 KLZK 230520
TAFLIT
TAF
KLIT 230520Z 2306/2406 VRB03KT P6SM BKN250
      TEMPO 2310/2313 5SM BR
     FM231500 22006KT P6SM SCT050 SCT250
     FM240100 17004KT P6SM SCT250=

USA.gov is the U.S. government's official web portal to all federal, state and local government web resources and services.